N.dadayli — TCCW7 — position and weather

sailwx.info

Track history (hours):
 
Tides and Currents Weather Stations Pressure Air Temp Water Temp Dewpoint Dewpoint Depression Visibility Wind Speed Wind Dir Waves Ship Positions

N.dadayli

Last reported at 2015-Jul-26 11:18 UTC. Time now 2015-Jul-30 20:16 UTC.
Position N 43°31' W 003°24'.

Length 101 m; draft 8.4 m.

Type: Ship. MMSI: 271000768.

Date/timePositionNaut miles runAvg speedWind from/ knotsBaromVisibWave heightAir tempDewpointWater temp
2015-Jul-26 11:18N 43°31' W 003°24'810.8
2015-Jul-26 10:33N 43°34' W 003°34'5811.1
2015-Jul-26 05:21N 43°44' W 004°53'911.1
2015-Jul-26 04:33N 43°45' W 005°05'1110.8
2015-Jul-26 03:31N 43°47' W 005°20'1110.9
2015-Jul-26 02:29N 43°48' W 005°36'1010.2
2015-Jul-26 01:31N 43°49' W 005°49'317 6.9
2015-Jul-24 03:33N 39°28' W 009°51'1010.4
2015-Jul-24 02:33N 39°18' W 009°51'1010.3
2015-Jul-24 01:33N 39°08' W 009°51'1010.4
2015-Jul-24 00:33N 38°57' W 009°51'1010.4
2015-Jul-23 23:33N 38°47' W 009°51'1010.2
2015-Jul-23 22:33N 38°37' W 009°50'1010.4
2015-Jul-23 21:33N 38°26' W 009°46'10 9.8
2015-Jul-23 20:33N 38°17' W 009°43'10 9.8
2015-Jul-23 19:33N 38°07' W 009°41'9 9.2
2015-Jul-23 18:33N 37°58' W 009°38'9 9.1
2015-Jul-23 17:33N 37°50' W 009°35'9 9.4
2015-Jul-23 16:33N 37°41' W 009°33'9 9.3
2015-Jul-23 15:33N 37°32' W 009°30'9 9.2
2015-Jul-23 14:34N 37°23' W 009°28'9 8.6
2015-Jul-23 13:33N 37°14' W 009°26'9 9.0
2015-Jul-23 12:33N 37°05' W 009°23'9 8.9
2015-Jul-23 11:33N 36°57' W 009°20'9 8.5
2015-Jul-23 10:32N 36°49' W 009°15'8 8.5
2015-Jul-23 09:34N 36°44' W 009°06'9 8.6
2015-Jul-23 08:33N 36°41' W 008°56'9 8.6
2015-Jul-23 07:33N 36°38' W 008°46'9 9.2
2015-Jul-23 06:33N 36°36' W 008°35'10 9.6
2015-Jul-23 05:33N 36°33' W 008°24'10 9.8
2015-Jul-23 04:33N 36°30' W 008°12'1010.4
2015-Jul-23 03:33N 36°27' W 007°60'1010.1
2015-Jul-23 02:33N 36°23' W 007°48'1010.4
2015-Jul-23 01:33N 36°20' W 007°36'1010.3
2015-Jul-23 00:33N 36°17' W 007°24'1010.1
2015-Jul-22 23:33N 36°13' W 007°12'256 7.9
2015-Jul-21 15:04N 36°16' W 001°54'510.7
2015-Jul-21 14:33N 36°18' W 001°48'1111.2
2015-Jul-21 13:32N 36°22' W 001°34'1111.5
2015-Jul-21 12:33N 36°24' W 001°20'1111.3
2015-Jul-21 11:32N 36°26' W 001°07'1111.1
2015-Jul-21 10:33N 36°28' W 000°53'1211.2
2015-Jul-21 09:30N 36°30' W 000°39'1210.7
2015-Jul-21 08:21N 36°32' W 000°24'810.5
2015-Jul-21 07:33N 36°34' W 000°14'1010.3
2015-Jul-21 06:33N 36°37' W 000°01'1010.3
2015-Jul-21 05:33N 36°39' E 000°11'1110.5
2015-Jul-21 04:33N 36°42' E 000°24'1010.1
2015-Jul-21 03:32N 36°43' E 000°37'10 9.9
2015-Jul-21 02:32N 36°46' E 000°49'9 9.6
2015-Jul-21 01:33N 36°48' E 001°00'1010.2
2015-Jul-21 00:33N 36°50' E 001°12'1110.7
2015-Jul-20 23:33N 36°52' E 001°25'1410.8
2015-Jul-20 22:16N 36°55' E 001°42'810.5
2015-Jul-20 21:33N 36°57' E 001°52'1110.8
2015-Jul-20 20:33N 36°60' E 002°05'1110.8
2015-Jul-20 19:33N 37°02' E 002°18'1110.7
2015-Jul-20 18:32N 37°03' E 002°31'1110.9
2015-Jul-20 17:33N 37°06' E 002°44'1110.8
2015-Jul-20 16:33N 37°09' E 002°58'1110.8
2015-Jul-20 15:33N 37°11' E 003°11'1210.9
2015-Jul-20 14:26N 37°14' E 003°26'1010.8
2015-Jul-20 13:33N 37°16' E 003°37'1110.9
2015-Jul-20 12:33N 37°19' E 003°51'6510.6
2015-Jul-20 06:27N 37°24' E 005°12'910.2
2015-Jul-20 05:33N 37°25' E 005°23'3210.5
2015-Jul-20 02:30N 37°29' E 006°03'1310.9
2015-Jul-20 01:21N 37°30' E 006°19'10510.7
2015-Jul-19 15:32N 37°40' E 008°32'1110.8
2015-Jul-19 14:33N 37°41' E 008°45'1110.6
2015-Jul-19 13:33N 37°42' E 008°58'1110.3
2015-Jul-19 12:30N 37°42' E 009°12'1010.1
2015-Jul-19 11:29N 37°41' E 009°25'1010.1
2015-Jul-19 10:33N 37°40' E 009°37'1010.2
2015-Jul-19 09:33N 37°40' E 009°50'1010.1
2015-Jul-19 08:33N 37°39' E 010°02'1010.0
2015-Jul-19 07:33N 37°39' E 010°15'1010.0
2015-Jul-19 06:33N 37°36' E 010°27'1010.2
2015-Jul-19 05:33N 37°34' E 010°40'1010.2
2015-Jul-19 04:33N 37°31' E 010°52'4410.9
2015-Jul-19 00:32N 37°18' E 011°45'4410.7
2015-Jul-18 20:29N 37°06' E 012°37'1010.7
2015-Jul-18 19:33N 37°04' E 012°50'1010.3
2015-Jul-18 18:33N 37°02' E 013°02'10 9.9
2015-Jul-18 17:33N 36°59' E 013°14'1010.0
2015-Jul-18 16:33N 36°56' E 013°26'1010.4
2015-Jul-18 15:33N 36°54' E 013°39'1110.6
2015-Jul-18 14:33N 36°51' E 013°51'1110.5
2015-Jul-18 13:33N 36°48' E 014°04'1110.7
2015-Jul-18 12:33N 36°45' E 014°17'1110.6
2015-Jul-18 11:33N 36°43' E 014°30'1110.6
2015-Jul-18 10:33N 36°40' E 014°43'2410.5
2015-Jul-18 08:17N 36°33' E 015°11'810.4
2015-Jul-18 07:33N 36°33' E 015°20'1110.3
2015-Jul-18 06:32N 36°33' E 015°34'1010.4
2015-Jul-18 05:33N 36°33' E 015°46'1110.4
2015-Jul-18 04:33N 36°32' E 015°59'  
Track history (hours):
 
Tides and Currents Weather Stations Pressure Air Temp Water Temp Dewpoint Dewpoint Depression Visibility Wind Speed Wind Dir Waves Ship Positions

N.dadayli

Last reported at 2015-Jul-26 11:18 UTC. Time now 2015-Jul-30 20:16 UTC.
Position N 43°31' W 003°24'.

Length 101 m; draft 8.4 m.

Type: Ship. MMSI: 271000768.

Date/timePositionNaut miles runAvg speedWind from/ knotsBaromVisibWave heightAir tempDewpointWater temp
2015-Jul-26 11:18N 43°31' W 003°24'810.8
2015-Jul-26 10:33N 43°34' W 003°34'5811.1
2015-Jul-26 05:21N 43°44' W 004°53'911.1
2015-Jul-26 04:33N 43°45' W 005°05'1110.8
2015-Jul-26 03:31N 43°47' W 005°20'1110.9
2015-Jul-26 02:29N 43°48' W 005°36'1010.2
2015-Jul-26 01:31N 43°49' W 005°49'317 6.9
2015-Jul-24 03:33N 39°28' W 009°51'1010.4
2015-Jul-24 02:33N 39°18' W 009°51'1010.3
2015-Jul-24 01:33N 39°08' W 009°51'1010.4
2015-Jul-24 00:33N 38°57' W 009°51'1010.4
2015-Jul-23 23:33N 38°47' W 009°51'1010.2
2015-Jul-23 22:33N 38°37' W 009°50'1010.4
2015-Jul-23 21:33N 38°26' W 009°46'10 9.8
2015-Jul-23 20:33N 38°17' W 009°43'10 9.8
2015-Jul-23 19:33N 38°07' W 009°41'9 9.2
2015-Jul-23 18:33N 37°58' W 009°38'9 9.1
2015-Jul-23 17:33N 37°50' W 009°35'9 9.4
2015-Jul-23 16:33N 37°41' W 009°33'9 9.3
2015-Jul-23 15:33N 37°32' W 009°30'9 9.2
2015-Jul-23 14:34N 37°23' W 009°28'9 8.6
2015-Jul-23 13:33N 37°14' W 009°26'9 9.0
2015-Jul-23 12:33N 37°05' W 009°23'9 8.9
2015-Jul-23 11:33N 36°57' W 009°20'9 8.5
2015-Jul-23 10:32N 36°49' W 009°15'8 8.5
2015-Jul-23 09:34N 36°44' W 009°06'9 8.6
2015-Jul-23 08:33N 36°41' W 008°56'9 8.6
2015-Jul-23 07:33N 36°38' W 008°46'9 9.2
2015-Jul-23 06:33N 36°36' W 008°35'10 9.6
2015-Jul-23 05:33N 36°33' W 008°24'10 9.8
2015-Jul-23 04:33N 36°30' W 008°12'1010.4
2015-Jul-23 03:33N 36°27' W 007°60'1010.1
2015-Jul-23 02:33N 36°23' W 007°48'1010.4
2015-Jul-23 01:33N 36°20' W 007°36'1010.3
2015-Jul-23 00:33N 36°17' W 007°24'1010.1
2015-Jul-22 23:33N 36°13' W 007°12'256 7.9
2015-Jul-21 15:04N 36°16' W 001°54'510.7
2015-Jul-21 14:33N 36°18' W 001°48'1111.2
2015-Jul-21 13:32N 36°22' W 001°34'1111.5
2015-Jul-21 12:33N 36°24' W 001°20'1111.3
2015-Jul-21 11:32N 36°26' W 001°07'1111.1
2015-Jul-21 10:33N 36°28' W 000°53'1211.2
2015-Jul-21 09:30N 36°30' W 000°39'1210.7
2015-Jul-21 08:21N 36°32' W 000°24'810.5
2015-Jul-21 07:33N 36°34' W 000°14'1010.3
2015-Jul-21 06:33N 36°37' W 000°01'1010.3
2015-Jul-21 05:33N 36°39' E 000°11'1110.5
2015-Jul-21 04:33N 36°42' E 000°24'1010.1
2015-Jul-21 03:32N 36°43' E 000°37'10 9.9
2015-Jul-21 02:32N 36°46' E 000°49'9 9.6
2015-Jul-21 01:33N 36°48' E 001°00'1010.2
2015-Jul-21 00:33N 36°50' E 001°12'1110.7
2015-Jul-20 23:33N 36°52' E 001°25'1410.8
2015-Jul-20 22:16N 36°55' E 001°42'810.5
2015-Jul-20 21:33N 36°57' E 001°52'1110.8
2015-Jul-20 20:33N 36°60' E 002°05'1110.8
2015-Jul-20 19:33N 37°02' E 002°18'1110.7
2015-Jul-20 18:32N 37°03' E 002°31'1110.9
2015-Jul-20 17:33N 37°06' E 002°44'1110.8
2015-Jul-20 16:33N 37°09' E 002°58'1110.8
2015-Jul-20 15:33N 37°11' E 003°11'1210.9
2015-Jul-20 14:26N 37°14' E 003°26'1010.8
2015-Jul-20 13:33N 37°16' E 003°37'1110.9
2015-Jul-20 12:33N 37°19' E 003°51'6510.6
2015-Jul-20 06:27N 37°24' E 005°12'910.2
2015-Jul-20 05:33N 37°25' E 005°23'3210.5
2015-Jul-20 02:30N 37°29' E 006°03'1310.9
2015-Jul-20 01:21N 37°30' E 006°19'10510.7
2015-Jul-19 15:32N 37°40' E 008°32'1110.8
2015-Jul-19 14:33N 37°41' E 008°45'1110.6
2015-Jul-19 13:33N 37°42' E 008°58'1110.3
2015-Jul-19 12:30N 37°42' E 009°12'1010.1
2015-Jul-19 11:29N 37°41' E 009°25'1010.1
2015-Jul-19 10:33N 37°40' E 009°37'1010.2
2015-Jul-19 09:33N 37°40' E 009°50'1010.1
2015-Jul-19 08:33N 37°39' E 010°02'1010.0
2015-Jul-19 07:33N 37°39' E 010°15'1010.0
2015-Jul-19 06:33N 37°36' E 010°27'1010.2
2015-Jul-19 05:33N 37°34' E 010°40'1010.2
2015-Jul-19 04:33N 37°31' E 010°52'4410.9
2015-Jul-19 00:32N 37°18' E 011°45'4410.7
2015-Jul-18 20:29N 37°06' E 012°37'1010.7
2015-Jul-18 19:33N 37°04' E 012°50'1010.3
2015-Jul-18 18:33N 37°02' E 013°02'10 9.9
2015-Jul-18 17:33N 36°59' E 013°14'1010.0
2015-Jul-18 16:33N 36°56' E 013°26'1010.4
2015-Jul-18 15:33N 36°54' E 013°39'1110.6
2015-Jul-18 14:33N 36°51' E 013°51'1110.5
2015-Jul-18 13:33N 36°48' E 014°04'1110.7
2015-Jul-18 12:33N 36°45' E 014°17'1110.6
2015-Jul-18 11:33N 36°43' E 014°30'1110.6
2015-Jul-18 10:33N 36°40' E 014°43'2410.5
2015-Jul-18 08:17N 36°33' E 015°11'810.4
2015-Jul-18 07:33N 36°33' E 015°20'1110.3
2015-Jul-18 06:32N 36°33' E 015°34'1010.4
2015-Jul-18 05:33N 36°33' E 015°46'1110.4
2015-Jul-18 04:33N 36°32' E 015°59'  

Dump ship's entire track history